Time;durP1;ratioP1;P1;durP2;ratioP2;P2;SDS_P1;SDS_P2;PMS_P1;PMS_P2;Temp;Humidity;BMP_temperature;BMP_pressure;BME280_temperature;BME280_humidity;BME280_pressure;Samples;Min_cycle;Max_cycle;Signal;HPM_P1;HPM_P2
2022/11/27 00:00:48;;;;;;;16.73;6.47;;;6.60;98.30;;;;;;4990612;28;20054;-68
2022/11/27 00:03:15;;;;;;;23.98;7.10;;;;;;;;;;4991072;28;20510;-69
2022/11/27 00:05:53;;;;;;;17.60;6.45;;;6.20;98.20;;;;;;4991025;28;20501;-68
2022/11/27 00:08:20;;;;;;;20.17;6.65;;;;;;;;;;4991306;28;20416;-69
2022/11/27 00:10:46;;;;;;;20.65;6.38;;;7.00;98.40;;;;;;4987648;28;20514;-68
2022/11/27 00:13:13;;;;;;;19.08;6.90;;;5.70;98.20;;;;;;4971537;28;20054;-68
2022/11/27 00:15:40;;;;;;;24.98;7.00;;;;;;;;;;4972495;28;20061;-69
2022/11/27 00:18:07;;;;;;;18.92;6.18;;;5.70;98.00;;;;;;4971793;28;20050;-68
2022/11/27 00:20:33;;;;;;;13.88;5.72;;;6.00;98.10;;;;;;4971140;28;20081;-68
2022/11/27 00:23:02;;;;;;;14.77;6.47;;;6.00;97.40;;;;;;4971407;28;20086;-68
2022/11/27 00:25:28;;;;;;;18.48;7.57;;;6.40;94.00;;;;;;4973253;28;20496;-68
2022/11/27 00:27:55;;;;;;;22.42;7.13;;;4.90;97.90;;;;;;4990584;28;20057;-68
2022/11/27 00:30:22;;;;;;;16.33;6.75;;;6.10;98.20;;;;;;4990525;28;20062;-69
2022/11/27 00:32:49;;;;;;;19.23;6.97;;;;;;;;;;4990927;28;20141;-69
2022/11/27 00:35:16;;;;;;;21.98;6.75;;;6.50;98.20;;;;;;4991049;28;20054;-68
2022/11/27 00:37:42;;;;;;;16.65;6.45;;;6.90;94.20;;;;;;4990770;28;20506;-69
2022/11/27 00:40:11;;;;;;;16.33;6.45;;;5.80;98.20;;;;;;4987371;28;20130;-68
2022/11/27 00:42:38;;;;;;;17.60;6.80;;;;;;;;;;4972389;28;20063;-68
2022/11/27 00:45:06;;;;;;;21.48;6.30;;;5.80;98.20;;;;;;4975026;28;20143;-68
2022/11/27 00:47:33;;;;;;;21.38;6.50;;;;;;;;;;4975018;28;20054;-69
2022/11/27 00:50:00;;;;;;;15.10;6.22;;;5.90;98.10;;;;;;4974366;28;20051;-68
2022/11/27 00:52:26;;;;;;;15.45;5.97;;;5.00;98.10;;;;;;4974976;28;20057;-68
2022/11/27 00:54:53;;;;;;;15.48;6.07;;;5.90;94.10;;;;;;4974796;28;20472;-69
2022/11/27 00:57:21;;;;;;;17.55;6.30;;;6.70;98.30;;;;;;4981069;28;20053;-68
2022/11/27 00:59:48;;;;;;;16.00;6.82;;;6.30;98.30;;;;;;4994250;28;20054;-68
2022/11/27 01:02:15;;;;;;;12.93;6.25;;;;;;;;;;4993835;28;20109;-69
2022/11/27 01:04:44;;;;;;;16.85;6.38;;;5.70;93.80;;;;;;4994131;28;20058;-68
2022/11/27 01:07:11;;;;;;;13.93;6.55;;;;;;;;;;4994105;28;20151;-69
2022/11/27 01:09:38;;;;;;;18.00;6.88;;;5.70;98.20;;;;;;4994149;28;20054;-69
2022/11/27 01:12:06;;;;;;;22.10;6.53;;;5.60;90.90;;;;;;4988019;28;20051;-68
2022/11/27 01:14:34;;;;;;;18.73;6.50;;;5.30;98.20;;;;;;4974461;28;20154;-68
2022/11/27 01:17:01;;;;;;;14.85;6.35;;;5.60;98.40;;;;;;4974250;28;20526;-68
2022/11/27 01:19:28;;;;;;;20.67;6.63;;;;;;;;;;4974631;28;20073;-69
2022/11/27 01:21:54;;;;;;;16.65;6.13;;;5.30;98.10;;;;;;4975087;28;20057;-68
2022/11/27 01:24:21;;;;;;;17.23;6.43;;;5.50;98.20;;;;;;4974543;28;20137;-68
2022/11/27 01:26:48;;;;;;;15.18;6.50;;;;;;;;;;4982034;28;20076;-69
2022/11/27 01:29:15;;;;;;;22.17;6.28;;;5.50;98.40;;;;;;4993739;28;20161;-68
2022/11/27 01:31:43;;;;;;;17.75;6.28;;;5.60;90.90;;;;;;4993067;28;20110;-68
2022/11/27 01:34:14;;;;;;;16.92;5.80;;;5.50;90.80;;;;;;4993774;28;20054;-68
2022/11/27 01:36:41;;;;;;;18.98;6.63;;;;;;;;;;4993257;28;20233;-68
2022/11/27 01:39:08;;;;;;;18.40;6.30;;;;;;;;;;4993748;28;20141;-68
2022/11/27 01:41:36;;;;;;;14.15;6.10;;;6.20;98.50;;;;;;4992856;28;20049;-68
2022/11/27 01:44:04;;;;;;;15.52;5.90;;;5.40;97.30;;;;;;4993669;28;20046;-68
2022/11/27 01:46:34;;;;;;;17.30;6.57;;;5.50;98.20;;;;;;4990475;28;20090;-68
2022/11/27 01:49:21;;;;;;;14.30;6.03;;;5.10;92.20;;;;;;4993365;28;20711;-68
2022/11/27 01:51:50;;;;;;;17.30;6.47;;;5.40;90.80;;;;;;4994124;28;20061;-68
2022/11/27 01:54:17;;;;;;;15.07;6.15;;;;;;;;;;4993333;28;20054;-68
2022/11/27 01:56:44;;;;;;;12.40;5.80;;;;;;;;;;4979743;28;20061;-69
2022/11/27 01:59:11;;;;;;;11.48;5.93;;;;;;;;;;4973912;28;20059;-68
2022/11/27 02:01:38;;;;;;;18.13;6.55;;;5.90;98.30;;;;;;4974128;28;20181;-68
2022/11/27 02:04:06;;;;;;;11.73;6.25;;;5.30;90.70;;;;;;4973881;28;20054;-68
2022/11/27 02:06:33;;;;;;;17.17;6.13;;;;;;;;;;4973647;28;20080;-68
2022/11/27 02:09:00;;;;;;;17.95;6.30;;;5.60;98.20;;;;;;4973665;28;20464;-68
2022/11/27 02:11:29;;;;;;;18.95;6.40;;;5.30;90.70;;;;;;4985582;28;20050;-69
2022/11/27 02:13:59;;;;;;;17.25;6.05;;;5.30;98.10;;;;;;4992790;28;20515;-68
2022/11/27 02:16:31;;;;;;;20.08;6.75;;;5.40;98.10;;;;;;4992974;28;20050;-68
2022/11/27 02:19:00;;;;;;;15.40;5.82;;;4.90;93.20;;;;;;4992909;28;20082;-68
2022/11/27 02:21:32;;;;;;;13.90;6.15;;;5.80;98.40;;;;;;4992163;28;20054;-68
2022/11/27 02:24:23;;;;;;;14.75;5.88;;;5.20;90.70;;;;;;4992963;28;20065;-69
2022/11/27 02:27:03;;;;;;;13.70;5.93;;;5.20;97.90;;;;;;4954031;29;20472;-68
2022/11/27 02:29:31;;;;;;;13.38;5.90;;;5.20;90.70;;;;;;4953845;28;20066;-69
2022/11/27 02:32:01;;;;;;;18.08;6.05;;;5.00;90.70;;;;;;4953231;28;20531;-68
2022/11/27 02:34:28;;;;;;;14.27;5.90;;;5.00;90.60;;;;;;4953975;29;20058;-69
2022/11/27 02:36:58;;;;;;;18.70;5.95;;;5.10;98.30;;;;;;4953252;28;20053;-68
2022/11/27 02:39:27;;;;;;;14.98;6.00;;;4.20;98.10;;;;;;4959125;28;20137;-68
2022/11/27 02:41:55;;;;;;;18.98;6.72;;;4.40;94.40;;;;;;4991726;28;20049;-68
2022/11/27 02:44:22;;;;;;;17.42;5.72;;;;;;;;;;4992464;28;20058;-68
2022/11/27 02:46:50;;;;;;;16.48;6.22;;;4.10;98.00;;;;;;4992179;28;20060;-68
2022/11/27 02:49:18;;;;;;;16.23;5.70;;;5.00;98.20;;;;;;4991902;28;20401;-69
2022/11/27 02:51:47;;;;;;;20.88;5.80;;;5.10;94.00;;;;;;4991501;28;20058;-68
2022/11/27 02:54:17;;;;;;;10.98;5.63;;;4.80;90.60;;;;;;4973536;28;20144;-68
2022/11/27 02:56:43;;;;;;;9.68;4.97;;;4.60;93.10;;;;;;4992127;28;20073;-68
2022/11/27 02:59:12;;;;;;;12.40;5.25;;;4.90;90.60;;;;;;4991908;28;20097;-68
2022/11/27 03:01:41;;;;;;;15.50;5.68;;;5.00;93.40;;;;;;4991528;28;20048;-69
2022/11/27 03:04:10;;;;;;;12.60;5.40;;;4.90;90.60;;;;;;4992163;28;20127;-68
2022/11/27 03:06:41;;;;;;;20.05;5.53;;;4.90;97.90;;;;;;4989044;28;20050;-68
2022/11/27 03:09:09;;;;;;;14.77;5.22;;;4.90;98.00;;;;;;4972530;28;20157;-68
2022/11/27 03:11:36;;;;;;;19.25;5.40;;;;;;;;;;4971953;28;20057;-68
2022/11/27 03:14:04;;;;;;;11.00;4.63;;;4.80;98.20;;;;;;4973360;28;20055;-67
2022/11/27 03:16:35;;;;;;;14.70;5.13;;;4.80;90.60;;;;;;4972389;28;20507;-68
2022/11/27 03:19:04;;;;;;;11.95;5.32;;;5.50;98.20;;;;;;4973251;28;20050;-68
2022/11/27 03:21:34;;;;;;;16.65;5.35;;;4.80;93.40;;;;;;4975074;28;20146;-69
2022/11/27 03:24:01;;;;;;;16.73;5.68;;;;;;;;;;4991345;28;20077;-68
2022/11/27 03:26:28;;;;;;;13.35;5.40;;;4.90;98.20;;;;;;4992522;28;20424;-68
2022/11/27 03:28:55;;;;;;;11.90;5.13;;;4.80;98.20;;;;;;4992435;28;20129;-68
2022/11/27 03:31:22;;;;;;;14.20;5.45;;;;;;;;;;4991095;28;20050;-68
2022/11/27 03:33:49;;;;;;;9.25;5.22;;;;;;;;;;4991480;28;20058;-68
2022/11/27 03:36:17;;;;;;;17.27;5.43;;;4.90;98.10;;;;;;4985892;28;20161;-68
2022/11/27 03:38:45;;;;;;;15.45;5.70;;;4.10;90.50;;;;;;4971778;28;20145;-68
2022/11/27 03:41:17;;;;;;;18.70;5.80;;;4.70;90.60;;;;;;4971679;28;20073;-68
2022/11/27 03:43:47;;;;;;;14.35;5.25;;;4.70;90.60;;;;;;4972140;28;20062;-69
2022/11/27 03:46:16;;;;;;;11.48;4.93;;;4.80;90.60;;;;;;4972037;28;20146;-68
2022/11/27 03:48:46;;;;;;;10.65;4.57;;;4.20;97.70;;;;;;4971966;28;20494;-68
2022/11/27 03:51:15;;;;;;;16.40;4.93;;;4.20;98.00;;;;;;4977993;28;20046;-68
2022/11/27 03:53:49;;;;;;;11.45;5.32;;;4.90;90.60;;;;;;4991397;28;20060;-69
2022/11/27 03:56:20;;;;;;;13.35;5.45;;;4.80;90.60;;;;;;4991226;28;20064;-68
2022/11/27 03:58:47;;;;;;;14.10;5.35;;;4.90;90.60;;;;;;4990960;28;20050;-68
2022/11/27 04:01:16;;;;;;;18.58;5.18;;;4.90;90.60;;;;;;4990529;28;20054;-68
2022/11/27 04:03:42;;;;;;;14.77;5.07;;;4.90;95.80;;;;;;4991122;28;20389;-68
2022/11/27 04:06:10;;;;;;;11.00;4.85;;;5.00;98.20;;;;;;4980502;28;20061;-68
2022/11/27 04:08:37;;;;;;;8.65;4.60;;;5.80;98.30;;;;;;4971484;28;20065;-68
2022/11/27 04:11:05;;;;;;;10.85;4.85;;;5.70;98.30;;;;;;4971011;28;20063;-68
2022/11/27 04:13:32;;;;;;;12.48;5.32;;;5.80;98.30;;;;;;4971338;28;20047;-68
2022/11/27 04:16:00;;;;;;;9.23;4.97;;;4.90;90.60;;;;;;4971772;28;20050;-68
2022/11/27 04:18:27;;;;;;;13.75;4.95;;;;;;;;;;4973968;28;20150;-68
2022/11/27 04:20:54;;;;;;;10.30;4.95;;;5.00;98.10;;;;;;4985889;28;20534;-68
2022/11/27 04:23:20;;;;;;;13.60;4.57;;;5.10;98.00;;;;;;4995186;28;20184;-68
2022/11/27 04:25:48;;;;;;;12.57;5.15;;;5.90;92.40;;;;;;4994819;28;20072;-68
2022/11/27 04:28:16;;;;;;;14.98;4.93;;;5.00;98.00;;;;;;4994899;28;20050;-68
2022/11/27 04:30:43;;;;;;;13.73;4.72;;;4.60;93.90;;;;;;4994239;28;20058;-68
2022/11/27 04:33:10;;;;;;;16.73;5.43;;;5.00;98.00;;;;;;4994988;28;20056;-68
2022/11/27 04:35:37;;;;;;;13.82;5.00;;;6.00;98.30;;;;;;4982719;28;20057;-68
2022/11/27 04:38:04;;;;;;;21.45;5.18;;;;;;;;;;4975168;28;20058;-69
2022/11/27 04:40:30;;;;;;;14.20;5.35;;;5.10;98.10;;;;;;4974901;28;20057;-68
2022/11/27 04:42:57;;;;;;;12.45;4.40;;;;;;;;;;4975115;28;20428;-69
2022/11/27 04:45:26;;;;;;;13.43;4.50;;;5.00;98.00;;;;;;4975253;28;20389;-68
2022/11/27 04:47:52;;;;;;;12.82;4.70;;;5.00;98.10;;;;;;4975006;28;20065;-68
2022/11/27 04:50:19;;;;;;;15.35;5.18;;;;;;;;;;4985843;28;20505;-68
2022/11/27 04:52:46;;;;;;;10.05;4.80;;;;;;;;;;4993878;28;20509;-69
2022/11/27 04:55:13;;;;;;;8.70;4.10;;;5.10;98.00;;;;;;4994270;28;20054;-68
2022/11/27 04:57:40;;;;;;;9.20;3.70;;;;;;;;;;4994502;28;20523;-68
2022/11/27 05:00:08;;;;;;;8.63;3.85;;;5.10;98.00;;;;;;4993722;28;20491;-68
2022/11/27 05:02:36;;;;;;;15.38;5.03;;;5.50;98.20;;;;;;4983939;28;20058;-68
2022/11/27 05:05:03;;;;;;;8.88;4.07;;;4.00;97.80;;;;;;4974568;28;20138;-68
2022/11/27 05:07:30;;;;;;;16.10;5.45;;;;;;;;;;4974473;28;20050;-69
2022/11/27 05:09:57;;;;;;;11.43;4.50;;;5.00;98.00;;;;;;4974539;28;20145;-68
2022/11/27 05:12:24;;;;;;;9.80;4.10;;;4.90;97.90;;;;;;4975687;28;20074;-68
2022/11/27 05:14:51;;;;;;;11.50;4.65;;;;;;;;;;4974529;28;20057;-69
2022/11/27 05:17:17;;;;;;;10.07;4.53;;;5.10;98.10;;;;;;4985821;28;20061;-68
2022/11/27 05:19:45;;;;;;;12.00;4.53;;;4.90;90.60;;;;;;4994112;28;20054;-68
2022/11/27 05:22:12;;;;;;;12.48;4.50;;;;;;;;;;4994663;28;20054;-68
2022/11/27 05:24:39;;;;;;;14.07;5.25;;;4.50;97.80;;;;;;4993814;28;20058;-68
2022/11/27 05:27:06;;;;;;;13.85;4.68;;;3.80;97.70;;;;;;4993781;28;20157;-68
2022/11/27 05:29:33;;;;;;;10.60;4.50;;;;;;;;;;4993337;28;20054;-69
2022/11/27 05:31:59;;;;;;;15.02;4.75;;;5.00;98.00;;;;;;4981967;28;20061;-68
2022/11/27 05:34:26;;;;;;;10.15;4.05;;;4.80;98.10;;;;;;4974390;28;20470;-68
2022/11/27 05:36:54;;;;;;;11.98;4.55;;;5.10;91.70;;;;;;4973944;28;20065;-68
2022/11/27 05:39:21;;;;;;;9.43;4.10;;;5.80;93.40;;;;;;4974374;28;20053;-68
2022/11/27 05:41:48;;;;;;;11.13;4.20;;;5.00;98.00;;;;;;4973607;28;20051;-68
2022/11/27 05:44:15;;;;;;;12.10;5.43;;;;;;;;;;4973967;28;20051;-68
2022/11/27 05:46:43;;;;;;;16.35;5.57;;;5.60;91.00;;;;;;4985525;28;20061;-69
2022/11/27 05:49:11;;;;;;;9.80;4.10;;;4.90;90.40;;;;;;4993501;28;20053;-68
2022/11/27 05:51:38;;;;;;;11.77;4.15;;;;;;;;;;4992900;28;20046;-68
2022/11/27 05:54:06;;;;;;;11.75;5.00;;;4.90;98.00;;;;;;4993509;28;20435;-68
2022/11/27 05:56:33;;;;;;;15.15;4.40;;;5.00;97.90;;;;;;4993188;28;20062;-68
2022/11/27 05:59:00;;;;;;;11.82;4.53;;;;;;;;;;4992738;28;20072;-69
2022/11/27 06:01:26;;;;;;;11.05;4.45;;;3.90;93.80;;;;;;4992028;28;20130;-68
2022/11/27 06:03:53;;;;;;;9.88;4.22;;;4.90;97.90;;;;;;4992772;28;20121;-68
2022/11/27 06:06:20;;;;;;;9.00;4.40;;;;;;;;;;4993222;28;20419;-68
2022/11/27 06:08:47;;;;;;;10.45;4.20;;;;;;;;;;4993030;28;20054;-68
2022/11/27 06:11:16;;;;;;;13.15;4.60;;;4.10;93.70;;;;;;4992515;28;20073;-68
2022/11/27 06:13:43;;;;;;;12.88;4.80;;;;;;;;;;4994156;28;20135;-68
2022/11/27 06:16:12;;;;;;;12.98;4.82;;;3.80;90.10;;;;;;4978569;28;20050;-68
2022/11/27 06:18:39;;;;;;;11.07;4.65;;;4.90;96.10;;;;;;4973684;28;20054;-69
2022/11/27 06:21:07;;;;;;;12.45;5.30;;;4.40;97.80;;;;;;4972840;28;20177;-68
2022/11/27 06:23:33;;;;;;;12.23;4.63;;;4.90;97.90;;;;;;4973483;28;20053;-68
2022/11/27 06:26:09;;;;;;;8.18;4.20;;;4.80;90.20;;;;;;4973128;28;20133;-69
2022/11/27 06:28:37;;;;;;;13.55;4.97;;;4.80;90.20;;;;;;4973501;28;20543;-68
2022/11/27 06:31:06;;;;;;;10.55;4.60;;;4.80;90.20;;;;;;4987757;28;20133;-69
2022/11/27 06:33:34;;;;;;;13.98;4.45;;;4.60;97.00;;;;;;4973001;28;20408;-68
2022/11/27 06:36:01;;;;;;;11.82;4.63;;;5.60;97.80;;;;;;4973270;28;20062;-68
2022/11/27 06:38:28;;;;;;;11.85;4.65;;;4.90;97.80;;;;;;4973952;28;20055;-68
2022/11/27 06:40:55;;;;;;;10.80;4.57;;;;;;;;;;4971560;28;20435;-68
2022/11/27 06:43:21;;;;;;;10.07;4.35;;;5.70;98.00;;;;;;4974256;28;20051;-68
2022/11/27 06:45:57;;;;;;;9.68;4.57;;;4.80;97.70;;;;;;4988887;28;20058;-68
2022/11/27 06:48:23;;;;;;;9.02;4.93;;;4.90;97.70;;;;;;4992599;28;20050;-68
2022/11/27 06:50:50;;;;;;;10.77;5.10;;;5.60;97.90;;;;;;4991376;28;20055;-68
2022/11/27 06:53:17;;;;;;;11.65;4.82;;;;;;;;;;4993306;28;20046;-68
2022/11/27 06:55:44;;;;;;;6.60;4.43;;;4.50;95.80;;;;;;4991907;28;20056;-68
2022/11/27 06:58:11;;;;;;;13.50;4.95;;;;;;;;;;4992222;28;20133;-69
2022/11/27 07:00:38;;;;;;;8.82;4.60;;;;;;;;;;4974288;28;20056;-69
2022/11/27 07:03:06;;;;;;;9.15;4.60;;;4.70;97.70;;;;;;4972619;28;20138;-68
2022/11/27 07:05:33;;;;;;;10.88;4.80;;;;;;;;;;4972549;28;20061;-69
2022/11/27 07:08:00;;;;;;;10.60;4.38;;;;;;;;;;4972597;28;20559;-69
2022/11/27 07:10:27;;;;;;;14.85;4.75;;;;;;;;;;4972120;28;20057;-68
2022/11/27 07:12:55;;;;;;;9.30;5.30;;;;;;;;;;4972203;28;20082;-69
2022/11/27 07:15:22;;;;;;;10.43;4.65;;;;;;;;;;4990520;28;20065;-68
2022/11/27 07:17:48;;;;;;;7.65;4.32;;;4.70;97.60;;;;;;4991976;28;20046;-69
2022/11/27 07:20:17;;;;;;;11.23;5.18;;;5.70;97.80;;;;;;4991181;28;20152;-68
2022/11/27 07:22:43;;;;;;;11.50;4.88;;;4.80;96.40;;;;;;4991770;28;20054;-68
2022/11/27 07:25:10;;;;;;;8.38;4.97;;;;;;;;;;4991735;28;20139;-69
2022/11/27 07:27:37;;;;;;;13.32;5.03;;;3.60;97.30;;;;;;4991779;28;20054;-69
2022/11/27 07:30:04;;;;;;;10.63;4.93;;;4.80;90.00;;;;;;4973057;28;20134;-69
2022/11/27 07:32:31;;;;;;;9.82;4.63;;;5.50;97.60;;;;;;4972081;28;20050;-68
2022/11/27 07:34:58;;;;;;;9.80;4.82;;;4.50;97.40;;;;;;4972871;28;20138;-68
2022/11/27 07:37:26;;;;;;;13.43;4.72;;;4.70;89.60;;;;;;4971726;28;20047;-69
2022/11/27 07:39:53;;;;;;;7.43;4.15;;;;;;;;;;4972171;28;20051;-69
2022/11/27 07:42:20;;;;;;;10.98;4.55;;;;;;;;;;4973027;28;20057;-69
2022/11/27 07:44:47;;;;;;;7.93;4.40;;;;;;;;;;4991139;28;20084;-69
2022/11/27 07:47:14;;;;;;;11.88;4.40;;;4.90;97.40;;;;;;4991618;28;20137;-69
2022/11/27 07:49:41;;;;;;;8.40;4.75;;;;;;;;;;4991281;28;20435;-68
2022/11/27 07:52:08;;;;;;;9.98;4.90;;;;;;;;;;4990750;28;20407;-68
2022/11/27 07:54:36;;;;;;;9.40;4.75;;;4.80;89.40;;;;;;4991494;28;20161;-69
2022/11/27 07:57:03;;;;;;;10.88;4.72;;;;;;;;;;4991083;28;20137;-69
2022/11/27 07:59:30;;;;;;;13.15;5.00;;;4.30;97.10;;;;;;4971638;28;20051;-69
2022/11/27 08:01:57;;;;;;;7.55;4.38;;;4.90;97.20;;;;;;4971306;28;20061;-68
2022/11/27 08:04:24;;;;;;;11.50;4.97;;;;;;;;;;4971876;28;20137;-68
2022/11/27 08:06:50;;;;;;;8.85;4.53;;;4.90;97.10;;;;;;4971827;28;20112;-69
2022/11/27 08:09:17;;;;;;;9.13;4.40;;;;;;;;;;4971725;28;20054;-69
2022/11/27 08:11:46;;;;;;;11.77;4.65;;;4.90;97.00;;;;;;4970302;28;20141;-69
2022/11/27 08:14:13;;;;;;;8.02;4.20;;;;;;;;;;4970331;28;20134;-69
2022/11/27 08:16:40;;;;;;;9.68;4.80;;;;;;;;;;4964377;28;20061;-69
2022/11/27 08:19:07;;;;;;;9.60;4.88;;;;;;;;;;4961684;28;20114;-69
2022/11/27 08:21:34;;;;;;;8.73;4.75;;;;;;;;;;4967066;28;20489;-69
2022/11/27 08:24:01;;;;;;;10.05;5.15;;;5.00;97.10;;;;;;4969926;28;20555;-69
2022/11/27 08:26:28;;;;;;;8.90;4.53;;;;;;;;;;4971749;28;20085;-69
2022/11/27 08:28:56;;;;;;;11.15;4.75;;;4.90;88.80;;;;;;4970740;28;20057;-69
2022/11/27 08:31:23;;;;;;;12.30;5.00;;;;;;;;;;4981732;28;20137;-69
2022/11/27 08:33:50;;;;;;;8.07;4.97;;;;;;;;;;4969665;28;20429;-69
2022/11/27 08:36:17;;;;;;;10.07;4.88;;;5.00;96.80;;;;;;4970310;28;20419;-69
2022/11/27 08:38:43;;;;;;;8.98;4.78;;;5.10;96.80;;;;;;4970534;28;20081;-69
2022/11/27 08:41:11;;;;;;;11.82;4.93;;;;;;;;;;4969636;28;20043;-69
2022/11/27 08:43:37;;;;;;;7.85;5.10;;;5.10;96.80;;;;;;4970472;28;20571;-68
2022/11/27 08:46:06;;;;;;;10.77;5.20;;;5.20;96.80;;;;;;4970307;28;20142;-69
2022/11/27 08:48:33;;;;;;;10.43;4.78;;;;;;;;;;4985942;28;20058;-69
2022/11/27 08:50:59;;;;;;;10.30;4.60;;;4.40;96.70;;;;;;4969773;28;20134;-69
2022/11/27 08:53:27;;;;;;;9.02;4.90;;;;;;;;;;4970071;28;20042;-68
2022/11/27 08:55:53;;;;;;;9.38;5.15;;;4.40;96.50;;;;;;4969620;28;20455;-69
2022/11/27 08:58:20;;;;;;;14.82;5.32;;;5.30;96.80;;;;;;4969955;28;20043;-69
2022/11/27 09:00:47;;;;;;;9.48;5.65;;;;;;;;;;4967183;28;20069;-69
2022/11/27 09:03:15;;;;;;;13.38;5.55;;;4.30;96.50;;;;;;4970545;28;20134;-68
2022/11/27 09:05:43;;;;;;;10.88;5.53;;;5.40;96.70;;;;;;4972953;28;20057;-69
2022/11/27 09:08:12;;;;;;;12.52;5.22;;;5.40;96.60;;;;;;4973614;28;20047;-69
2022/11/27 09:10:39;;;;;;;14.32;5.60;;;5.40;96.50;;;;;;4973279;28;20055;-69
2022/11/27 09:13:06;;;;;;;10.25;4.72;;;;;;;;;;4973375;28;20130;-69
2022/11/27 09:15:32;;;;;;;10.55;4.80;;;5.50;96.50;;;;;;4973298;28;20138;-69
2022/11/27 09:17:59;;;;;;;9.65;4.88;;;;;;;;;;4976994;28;20046;-69
2022/11/27 09:20:27;;;;;;;9.50;5.07;;;4.70;96.40;;;;;;4970376;28;20050;-69
2022/11/27 09:22:54;;;;;;;13.48;5.25;;;5.30;96.10;;;;;;4973490;28;20408;-69
2022/11/27 09:25:21;;;;;;;13.68;4.88;;;5.50;96.50;;;;;;4973443;28;20065;-68
2022/11/27 09:27:48;;;;;;;12.32;5.18;;;;;;;;;;4975466;28;20059;-69
2022/11/27 09:30:15;;;;;;;12.02;5.22;;;5.70;96.10;;;;;;4974704;28;20055;-69
2022/11/27 09:32:42;;;;;;;9.07;4.88;;;;;;;;;;4972728;28;20121;-69
2022/11/27 09:35:09;;;;;;;10.13;5.18;;;5.00;96.10;;;;;;4973776;28;20047;-69
2022/11/27 09:37:37;;;;;;;11.02;5.07;;;5.60;87.80;;;;;;4972652;28;20050;-68
2022/11/27 09:40:05;;;;;;;10.18;5.30;;;5.10;96.20;;;;;;4972546;28;20046;-68
2022/11/27 09:42:38;;;;;;;12.02;5.05;;;5.50;87.60;;;;;;4970804;28;20125;-70
2022/11/27 09:45:07;;;;;;;11.48;5.32;;;5.60;94.60;;;;;;4976329;28;20062;-68
2022/11/27 09:47:35;;;;;;;9.88;4.93;;;5.60;96.30;;;;;;4972698;28;20057;-68
2022/11/27 09:50:04;;;;;;;11.15;5.38;;;5.70;87.60;;;;;;4972634;28;20137;-69
2022/11/27 09:52:34;;;;;;;11.88;5.38;;;5.60;92.10;;;;;;4978107;28;20385;-69
2022/11/27 09:55:03;;;;;;;9.02;5.00;;;6.00;96.30;;;;;;4973109;28;20404;-68
2022/11/27 09:57:32;;;;;;;8.68;5.35;;;5.70;87.60;;;;;;4971008;28;20142;-69
2022/11/27 10:00:01;;;;;;;10.95;4.80;;;5.80;93.30;;;;;;4973286;28;20094;-68
2022/11/27 10:02:29;;;;;;;9.50;5.20;;;5.10;96.00;;;;;;4970847;28;20063;-68
2022/11/27 10:04:56;;;;;;;14.00;5.28;;;;;;;;;;4962758;28;20055;-69
2022/11/27 10:07:33;;;;;;;10.73;4.70;;;5.60;87.40;;;;;;4972528;28;20130;-69
2022/11/27 10:10:09;;;;;;;9.45;5.00;;;5.80;96.10;;;;;;4972809;28;20071;-69
2022/11/27 10:12:41;;;;;;;14.10;5.53;;;5.60;96.10;;;;;;4970716;28;20051;-69
2022/11/27 10:15:10;;;;;;;8.60;5.00;;;5.70;90.70;;;;;;4972102;28;20057;-69
2022/11/27 10:17:39;;;;;;;10.10;5.57;;;4.80;88.70;;;;;;4972101;28;20061;-69
2022/11/27 10:20:15;;;;;;;11.32;4.75;;;5.60;96.10;;;;;;4971663;28;20054;-69
2022/11/27 10:22:43;;;;;;;;;;;5.70;88.00;;;;;;4972725;28;20130;-69
2022/11/27 10:25:14;;;;;;;12.68;4.90;;;5.70;90.80;;;;;;4972010;28;19922;-69
2022/11/27 10:27:43;;;;;;;12.48;5.43;;;4.70;94.70;;;;;;4972006;28;20069;-69
2022/11/27 10:30:15;;;;;;;13.90;5.15;;;5.50;90.20;;;;;;4970997;28;20404;-68
2022/11/27 10:32:42;;;;;;;10.05;4.90;;;;;;;;;;4976519;28;20051;-69
2022/11/27 10:35:12;;;;;;;11.45;5.55;;;5.70;96.40;;;;;;4971797;28;20056;-68
2022/11/27 10:37:39;;;;;;;11.27;5.32;;;5.50;96.40;;;;;;4971124;28;20185;-68
2022/11/27 10:40:10;;;;;;;10.85;5.57;;;5.50;91.70;;;;;;4972001;28;20124;-68
2022/11/27 10:42:40;;;;;;;10.18;5.50;;;5.60;88.30;;;;;;4971910;28;20050;-69
2022/11/27 10:45:10;;;;;;;9.35;5.43;;;5.60;88.30;;;;;;4972290;28;20408;-68
2022/11/27 10:47:37;;;;;;;14.27;5.40;;;5.70;95.60;;;;;;4970863;28;20042;-69
2022/11/27 10:50:06;;;;;;;11.15;6.00;;;5.70;96.50;;;;;;4968606;28;20659;-69
2022/11/27 10:52:33;;;;;;;13.70;5.28;;;5.50;96.40;;;;;;4971989;28;20076;-69
2022/11/27 10:55:01;;;;;;;11.80;6.03;;;6.20;96.80;;;;;;4971787;28;20500;-69
2022/11/27 10:57:47;;;;;;;10.32;5.80;;;5.60;88.70;;;;;;4971748;28;20611;-69
2022/11/27 11:00:18;;;;;;;11.80;6.18;;;5.50;88.70;;;;;;4972232;28;20046;-68
2022/11/27 11:02:45;;;;;;;10.57;5.50;;;6.50;97.00;;;;;;4970880;28;20043;-69
2022/11/27 11:05:19;;;;;;;13.05;5.68;;;5.50;88.80;;;;;;4970577;28;20731;-68
2022/11/27 11:07:54;;;;;;;13.52;5.90;;;5.80;94.20;;;;;;4980268;28;20055;-68
2022/11/27 11:10:25;;;;;;;11.60;6.05;;;5.70;96.70;;;;;;4970857;28;20042;-68
2022/11/27 11:13:15;;;;;;;11.50;5.57;;;6.40;96.90;;;;;;4970341;28;20047;-68
2022/11/27 11:15:54;;;;;;;9.85;5.85;;;5.70;96.90;;;;;;4970967;28;20062;-68
2022/11/27 11:18:22;;;;;;;8.80;5.45;;;5.70;93.20;;;;;;4971504;28;20137;-68
2022/11/27 11:20:50;;;;;;;12.70;5.88;;;5.70;90.10;;;;;;4971553;28;20057;-68
2022/11/27 11:23:29;;;;;;;12.05;5.82;;;6.20;97.10;;;;;;4972699;28;20496;-67
2022/11/27 11:25:58;;;;;;;8.90;5.75;;;4.60;96.60;;;;;;4971448;28;20062;-68
2022/11/27 11:28:26;;;;;;;13.30;6.07;;;5.60;96.90;;;;;;4971375;28;20554;-68
2022/11/27 11:30:55;;;;;;;14.63;6.20;;;4.60;96.80;;;;;;4970954;28;20129;-68
2022/11/27 11:33:22;;;;;;;16.88;6.32;;;5.70;97.10;;;;;;4971267;28;20133;-67
2022/11/27 11:35:51;;;;;;;13.95;5.80;;;5.50;92.70;;;;;;4971180;28;20654;-68
2022/11/27 11:38:26;;;;;;;13.20;6.07;;;5.60;97.00;;;;;;4971160;28;20055;-67
2022/11/27 11:41:01;;;;;;;15.07;6.70;;;5.70;96.50;;;;;;4970895;28;20138;-67
2022/11/27 11:43:31;;;;;;;12.55;6.53;;;9.00;90.70;;;;;;4970932;28;20058;-68
2022/11/27 11:46:06;;;;;;;13.52;6.13;;;5.50;97.00;;;;;;4971269;28;20512;-68
2022/11/27 11:48:32;;;;;;;14.25;6.50;;;5.70;97.20;;;;;;4972488;28;20493;-68
2022/11/27 11:51:00;;;;;;;10.32;6.28;;;5.60;97.20;;;;;;4987860;28;20054;-68
2022/11/27 11:53:31;;;;;;;14.95;6.65;;;5.60;90.00;;;;;;4990066;28;20046;-68
2022/11/27 11:55:59;;;;;;;9.57;5.95;;;5.50;90.90;;;;;;4974166;28;20141;-68
2022/11/27 11:58:52;;;;;;;11.65;6.18;;;5.70;94.50;;;;;;4970684;28;20053;-68
2022/11/27 12:01:35;;;;;;;17.10;7.40;;;5.90;97.20;;;;;;4970022;28;20129;-68
2022/11/27 12:04:12;;;;;;;11.02;6.32;;;5.60;97.20;;;;;;4970041;28;20078;-68
2022/11/27 12:06:46;;;;;;;11.45;6.47;;;4.90;97.20;;;;;;4970569;28;20055;-68
2022/11/27 12:09:20;;;;;;;11.93;6.53;;;5.80;94.30;;;;;;4990608;28;20141;-68
2022/11/27 12:11:51;;;;;;;18.98;6.80;;;5.90;97.30;;;;;;4989384;28;20054;-67
2022/11/27 12:14:24;;;;;;;15.45;6.93;;;5.60;90.10;;;;;;4990216;28;20042;-68
2022/11/27 12:17:00;;;;;;;10.90;6.38;;;5.80;97.30;;;;;;4990026;28;20054;-68
2022/11/27 12:19:52;;;;;;;14.52;6.55;;;5.70;90.20;;;;;;4972344;28;20055;-68
2022/11/27 12:22:26;;;;;;;15.48;6.32;;;5.70;91.50;;;;;;4976168;28;20499;-68
2022/11/27 12:24:55;;;;;;;15.70;6.10;;;5.70;90.20;;;;;;4991229;28;20492;-68
2022/11/27 12:27:27;;;;;;;15.48;6.82;;;5.90;97.40;;;;;;4990192;28;20054;-68
2022/11/27 12:30:02;;;;;;;11.63;6.53;;;5.70;97.30;;;;;;4990179;28;20407;-67
2022/11/27 12:32:52;;;;;;;12.10;6.88;;;6.00;92.80;;;;;;4990244;28;20065;-67
2022/11/27 12:35:34;;;;;;;13.90;7.07;;;5.60;90.20;;;;;;4989935;28;20058;-68
2022/11/27 12:38:12;;;;;;;11.82;7.05;;;5.70;97.30;;;;;;4972598;28;20130;-68
2022/11/27 12:40:47;;;;;;;11.25;6.75;;;5.70;97.50;;;;;;4974155;28;20108;-67
2022/11/27 12:43:15;;;;;;;;;;;5.70;90.40;;;;;;4976873;28;20403;-67
2022/11/27 12:45:45;;;;;;;10.63;6.85;;;5.90;97.50;;;;;;4974895;28;20360;-68
2022/11/27 12:48:14;;;;;;;11.90;6.70;;;5.80;91.80;;;;;;4975290;28;20062;-67
2022/11/27 12:50:41;;;;;;;17.05;6.80;;;5.60;97.30;;;;;;4974570;28;20479;-67
2022/11/27 12:53:13;;;;;;;14.40;6.85;;;5.80;97.60;;;;;;4992758;28;20061;-68
2022/11/27 12:55:41;;;;;;;10.82;6.47;;;5.80;95.00;;;;;;4994290;28;20053;-67
2022/11/27 12:58:11;;;;;;;13.50;7.10;;;5.70;90.30;;;;;;4994228;28;20129;-68
2022/11/27 13:00:40;;;;;;;12.52;6.55;;;5.70;90.30;;;;;;4981962;28;20541;-68
2022/11/27 13:03:11;;;;;;;14.23;6.65;;;5.70;97.60;;;;;;4974350;28;20051;-68
2022/11/27 13:05:40;;;;;;;14.15;7.43;;;5.70;90.30;;;;;;4975861;28;20054;-67
2022/11/27 13:08:10;;;;;;;16.20;6.53;;;5.80;97.60;;;;;;4994002;28;20061;-68
2022/11/27 13:10:40;;;;;;;13.35;6.45;;;5.70;90.40;;;;;;4992472;28;20130;-68
2022/11/27 13:13:09;;;;;;;13.13;6.35;;;5.80;97.10;;;;;;4989693;28;20415;-68
2022/11/27 13:15:38;;;;;;;16.85;7.22;;;5.80;90.40;;;;;;4974157;28;20062;-68
2022/11/27 13:18:10;;;;;;;12.73;6.63;;;5.70;90.40;;;;;;4974369;28;20415;-68